Portada
METAR-TAF:

METAR-TAF

Aeroports :

Base aèria

Tafraoui, Algèria

latitud: 35-32-33N, longitud: 000-31-56W, altitud: 112 m

Observació

L'informe es va fer fa 1 hora i 14 minuts, a les 19:00 UTC
Vent 14 kt del Nord/Nord-Est
Temperatura 21°C
Humitat 73%
Pressió 1020 hPa
Visibilitat 10 km o més
Escasses núvols a una alçada de 3000 ft, Cumulus congestus.
Núvols disperses a una alçada de 3300 ft

METAR: DAOL 261900Z 03014KT 9999 FEW030TCU SCT033 21/16 Q1020

Hora: 21:14 (20:14 UTC)


TAF: manca

Observacions i pronòstics meteorològics de més de 4000 aeroports (METAR i TAF).

Les estacions disponibles són els punts grocs i vermells al mapa.

Posi el ratolí al punt desitjat per veure el nom de l'estació.

Feu clic per veure les observacions i els pronòstics meteorològics.

Per canviar el mapa: feu clic els botons verds amb una creu de color negre per apropar; al botó verd amb un guió per allunyar la imatge; o en les fletxes verdes per a mapes adjacents.


METAR-TAF: